Time;durP1;ratioP1;P1;durP2;ratioP2;P2;SDS_P1;SDS_P2;PMS_P1;PMS_P2;Temp;Humidity;BMP_temperature;BMP_pressure;BME280_temperature;BME280_humidity;BME280_pressure;Samples;Min_cycle;Max_cycle;Signal;HPM_P1;HPM_P2
2023/04/19 00:00:29;;;;;;;4.80;4.33;;;13.10;99.90;;;;;;5051724;28;20174;-71
2023/04/19 00:02:55;;;;;;;3.97;3.53;;;13.10;99.90;;;;;;5052332;28;20159;-72
2023/04/19 00:05:23;;;;;;;5.13;4.40;;;13.20;99.90;;;;;;5052967;28;20221;-72
2023/04/19 00:07:49;;;;;;;6.60;4.47;;;13.20;99.90;;;;;;5052556;28;20163;-72
2023/04/19 00:10:15;;;;;;;4.63;4.13;;;13.20;99.90;;;;;;5051528;28;20882;-72
2023/04/19 00:12:40;;;;;;;8.57;5.23;;;13.10;99.90;;;;;;5052750;28;20431;-72
2023/04/19 00:15:06;;;;;;;8.97;7.30;;;13.10;99.90;;;;;;5052606;28;20583;-71
2023/04/19 00:17:32;;;;;;;10.97;7.87;;;13.10;99.90;;;;;;5051106;28;20667;-71
2023/04/19 00:19:58;;;;;;;14.77;9.07;;;13.10;99.90;;;;;;5052650;28;20452;-72
2023/04/19 00:22:24;;;;;;;10.33;8.30;;;13.00;99.90;;;;;;5052700;28;20976;-71
2023/04/19 00:24:49;;;;;;;10.10;8.60;;;13.00;99.90;;;;;;5052478;28;20179;-72
2023/04/19 00:27:15;;;;;;;10.87;8.70;;;12.90;99.90;;;;;;5052369;28;20166;-72
2023/04/19 00:29:40;;;;;;;8.93;8.03;;;12.90;99.90;;;;;;5051070;28;20167;-71
2023/04/19 00:32:06;;;;;;;16.20;9.77;;;12.80;99.90;;;;;;5052279;28;20194;-70
2023/04/19 00:34:31;;;;;;;12.87;8.00;;;12.80;99.90;;;;;;5052298;28;20197;-72
2023/04/19 00:36:57;;;;;;;11.00;9.13;;;12.70;99.90;;;;;;5051972;28;20658;-72
2023/04/19 00:39:22;;;;;;;11.37;8.93;;;12.70;99.90;;;;;;5051980;28;20668;-71
2023/04/19 00:41:48;;;;;;;9.37;8.47;;;12.70;99.90;;;;;;5052329;28;20545;-71
2023/04/19 00:44:14;;;;;;;9.57;7.90;;;12.60;99.90;;;;;;5051950;28;21528;-72
2023/04/19 00:46:41;;;;;;;9.97;8.23;;;12.60;99.90;;;;;;5052231;28;20625;-72
2023/04/19 00:49:07;;;;;;;11.23;9.50;;;12.60;99.90;;;;;;5050382;28;20463;-72
2023/04/19 00:51:33;;;;;;;11.50;8.60;;;12.50;99.90;;;;;;5052129;28;20500;-72
2023/04/19 00:53:58;;;;;;;11.20;9.37;;;12.50;99.90;;;;;;5051933;28;20189;-72
2023/04/19 00:56:26;;;;;;;10.20;8.00;;;12.40;99.90;;;;;;5051993;28;20412;-72
2023/04/19 00:58:53;;;;;;;10.83;8.90;;;12.40;99.90;;;;;;5051603;28;20589;-72
2023/04/19 01:01:18;;;;;;;15.63;10.10;;;12.30;99.90;;;;;;5052040;28;20411;-72
2023/04/19 01:03:45;;;;;;;13.03;8.50;;;12.30;99.90;;;;;;5052017;28;20402;-72
2023/04/19 01:06:11;;;;;;;14.07;9.70;;;12.30;99.90;;;;;;5051829;28;20210;-71
2023/04/19 01:08:36;;;;;;;11.43;9.10;;;12.20;99.90;;;;;;5051749;28;20441;-72
2023/04/19 01:11:02;;;;;;;10.47;7.90;;;12.20;99.90;;;;;;5050626;28;20178;-72
2023/04/19 01:13:27;;;;;;;10.80;8.40;;;12.20;99.90;;;;;;5051983;28;20187;-72
2023/04/19 01:15:54;;;;;;;12.17;9.33;;;12.20;99.90;;;;;;5051735;28;20219;-71
2023/04/19 01:18:20;;;;;;;10.20;8.60;;;12.10;99.90;;;;;;5051437;28;20198;-72
2023/04/19 01:20:46;;;;;;;10.90;8.73;;;12.00;99.90;;;;;;5054615;28;20758;-72
2023/04/19 01:23:11;;;;;;;12.53;9.00;;;12.00;99.90;;;;;;5058515;28;20431;-71
2023/04/19 01:25:37;;;;;;;12.27;8.43;;;12.00;99.90;;;;;;5058171;28;20193;-72
2023/04/19 01:28:03;;;;;;;9.53;8.50;;;11.90;99.90;;;;;;5057997;28;20215;-72
2023/04/19 01:30:29;;;;;;;10.43;8.63;;;11.90;99.90;;;;;;5058258;28;20409;-72
2023/04/19 01:32:54;;;;;;;10.30;8.00;;;12.00;99.90;;;;;;5058353;28;20193;-72
2023/04/19 01:35:20;;;;;;;11.10;8.00;;;11.90;99.90;;;;;;5058236;28;20679;-71
2023/04/19 01:37:45;;;;;;;20.80;13.20;;;11.90;99.90;;;;;;5057953;28;20190;-72
2023/04/19 01:40:11;;;;;;;13.53;9.40;;;11.90;99.90;;;;;;5058374;28;20232;-72
2023/04/19 01:42:37;;;;;;;15.80;9.33;;;12.00;99.90;;;;;;5057174;28;20193;-72
2023/04/19 01:45:03;;;;;;;11.47;8.70;;;11.90;99.90;;;;;;5058226;28;20950;-72
2023/04/19 01:47:28;;;;;;;13.90;9.53;;;11.90;99.90;;;;;;5057908;28;20171;-71
2023/04/19 01:49:54;;;;;;;12.47;9.73;;;11.80;99.90;;;;;;5056913;28;20944;-71
2023/04/19 01:52:19;;;;;;;11.37;8.77;;;11.70;99.90;;;;;;5058241;28;20277;-72
2023/04/19 01:54:45;;;;;;;12.77;9.47;;;11.60;99.90;;;;;;5058129;28;20193;-71
2023/04/19 01:57:10;;;;;;;12.90;9.20;;;11.50;99.90;;;;;;5057772;28;20166;-72
2023/04/19 01:59:36;;;;;;;13.10;9.13;;;11.40;99.90;;;;;;5058127;28;20194;-72
2023/04/19 02:02:01;;;;;;;13.50;9.27;;;11.20;99.90;;;;;;5056668;28;20173;-72
2023/04/19 02:04:27;;;;;;;11.90;8.77;;;11.10;99.90;;;;;;5057985;28;20555;-71
2023/04/19 02:06:52;;;;;;;14.20;9.13;;;11.00;99.90;;;;;;5057789;28;20163;-71
2023/04/19 02:09:18;;;;;;;11.63;7.77;;;11.00;99.90;;;;;;5058028;28;20175;-72
2023/04/19 02:11:43;;;;;;;10.63;8.53;;;11.00;99.90;;;;;;5056602;28;20250;-71
2023/04/19 02:14:09;;;;;;;11.60;8.27;;;11.10;99.90;;;;;;5057836;28;20193;-72
2023/04/19 02:16:35;;;;;;;14.50;9.50;;;11.10;99.90;;;;;;5057939;28;20174;-71
2023/04/19 02:19:00;;;;;;;16.73;9.53;;;11.20;99.90;;;;;;5057637;28;20191;-72
2023/04/19 02:21:26;;;;;;;12.00;9.83;;;11.20;99.90;;;;;;5057846;28;20171;-72
2023/04/19 02:23:51;;;;;;;12.93;10.57;;;11.30;99.90;;;;;;5056824;28;20264;-72
2023/04/19 02:26:17;;;;;;;13.90;10.73;;;11.30;99.90;;;;;;5057821;28;20798;-71
2023/04/19 02:28:42;;;;;;;12.10;9.43;;;11.30;99.90;;;;;;5057646;28;20174;-72
2023/04/19 02:31:08;;;;;;;12.00;9.63;;;11.40;99.90;;;;;;5057811;28;20174;-72
2023/04/19 02:33:34;;;;;;;49.37;31.60;;;11.40;99.90;;;;;;5052694;28;20171;-71
2023/04/19 02:35:59;;;;;;;19.97;15.20;;;11.40;99.90;;;;;;5054809;28;20198;-72
2023/04/19 02:38:25;;;;;;;20.07;11.47;;;11.40;99.90;;;;;;5053069;28;20583;-72
2023/04/19 02:40:50;;;;;;;13.33;9.93;;;11.50;99.90;;;;;;5054522;28;20227;-72
2023/04/19 02:43:16;;;;;;;14.40;10.30;;;11.50;99.90;;;;;;5054529;28;20163;-72
2023/04/19 02:45:41;;;;;;;15.60;11.23;;;11.50;99.90;;;;;;5054587;28;20183;-71
2023/04/19 02:48:07;;;;;;;14.57;11.50;;;11.50;99.90;;;;;;5053984;28;20174;-72
2023/04/19 02:50:35;;;;;;;18.00;10.50;;;11.50;99.90;;;;;;5054477;28;20521;-71
2023/04/19 02:53:01;;;;;;;12.83;9.93;;;11.50;99.90;;;;;;5054408;28;20182;-71
2023/04/19 02:55:26;;;;;;;13.40;10.53;;;11.50;99.90;;;;;;5052984;28;20429;-71
2023/04/19 02:57:52;;;;;;;12.63;9.70;;;11.60;99.90;;;;;;5053933;28;20174;-71
2023/04/19 03:00:17;;;;;;;12.17;10.20;;;11.60;99.90;;;;;;5054301;28;20164;-71
2023/04/19 03:02:43;;;;;;;14.47;10.43;;;11.60;99.90;;;;;;5054240;28;20167;-72
2023/04/19 03:05:09;;;;;;;20.30;14.73;;;11.60;99.90;;;;;;5054000;28;20194;-72
2023/04/19 03:07:35;;;;;;;21.97;14.37;;;11.60;99.90;;;;;;5053853;28;20254;-72
2023/04/19 03:10:00;;;;;;;15.53;11.63;;;11.60;99.90;;;;;;5053886;28;20423;-72
2023/04/19 03:12:26;;;;;;;16.10;11.03;;;11.50;99.90;;;;;;5052633;28;20380;-72
2023/04/19 03:14:52;;;;;;;13.97;10.30;;;11.60;99.90;;;;;;5053674;28;20194;-71
2023/04/19 03:17:17;;;;;;;14.50;10.60;;;11.60;99.90;;;;;;5053668;28;20163;-72
2023/04/19 03:19:43;;;;;;;15.67;10.60;;;11.60;99.90;;;;;;5052493;28;20199;-71
2023/04/19 03:22:08;;;;;;;16.80;11.10;;;11.60;99.90;;;;;;5053884;28;20564;-71
2023/04/19 03:24:34;;;;;;;14.53;11.60;;;11.60;99.90;;;;;;5053577;28;20186;-71
2023/04/19 03:27:00;;;;;;;14.50;9.63;;;11.50;99.90;;;;;;5053486;28;20620;-71
2023/04/19 03:29:25;;;;;;;13.97;9.77;;;11.50;99.90;;;;;;5053747;28;20174;-71
2023/04/19 03:31:51;;;;;;;13.63;9.80;;;11.50;99.90;;;;;;5053700;28;20205;-71
2023/04/19 03:34:16;;;;;;;15.70;10.30;;;11.50;99.90;;;;;;5052278;28;20562;-71
2023/04/19 03:36:42;;;;;;;12.37;8.27;;;11.50;99.90;;;;;;5053587;28;20647;-71
2023/04/19 03:39:07;;;;;;;11.90;9.90;;;11.50;99.90;;;;;;5052966;28;20345;-72
2023/04/19 03:41:33;;;;;;;14.67;10.07;;;11.60;99.90;;;;;;5053532;28;20170;-71
2023/04/19 03:43:58;;;;;;;14.40;9.37;;;11.60;99.90;;;;;;5052159;28;20225;-71
2023/04/19 03:46:24;;;;;;;11.37;9.80;;;11.60;99.90;;;;;;5052087;28;20171;-71
2023/04/19 03:48:51;;;;;;;13.07;10.10;;;11.70;99.90;;;;;;5051704;28;20167;-71
2023/04/19 03:51:17;;;;;;;10.73;8.90;;;11.60;99.90;;;;;;5053054;28;20401;-73
2023/04/19 03:53:42;;;;;;;10.57;8.67;;;11.70;99.90;;;;;;5052966;28;20404;-71
2023/04/19 03:56:08;;;;;;;8.90;8.07;;;11.70;99.90;;;;;;5053100;28;20260;-71
2023/04/19 03:58:33;;;;;;;10.13;8.93;;;11.70;99.90;;;;;;5052604;28;20533;-71
2023/04/19 04:01:00;;;;;;;9.57;7.50;;;11.70;99.90;;;;;;5053019;28;20174;-70
2023/04/19 04:03:26;;;;;;;12.63;8.80;;;11.70;99.90;;;;;;5053070;28;20216;-71
2023/04/19 04:05:51;;;;;;;13.27;9.17;;;11.60;99.90;;;;;;5051630;28;20476;-71
2023/04/19 04:08:17;;;;;;;13.53;9.07;;;11.60;99.90;;;;;;5051343;28;20413;-71
2023/04/19 04:10:42;;;;;;;13.90;8.87;;;11.60;99.90;;;;;;5051804;28;20171;-71
2023/04/19 04:13:08;;;;;;;9.40;8.07;;;11.60;99.90;;;;;;5052729;28;20190;-72
2023/04/19 04:15:34;;;;;;;13.27;9.20;;;11.60;99.90;;;;;;5051324;28;20194;-71
2023/04/19 04:17:59;;;;;;;10.80;8.70;;;11.60;99.90;;;;;;5052439;28;20743;-70
2023/04/19 04:20:25;;;;;;;9.63;7.90;;;11.60;99.90;;;;;;5052749;28;20569;-74
2023/04/19 04:22:51;;;;;;;12.93;10.07;;;11.60;99.90;;;;;;5052689;28;20624;-71
2023/04/19 04:25:17;;;;;;;11.00;8.67;;;11.70;99.90;;;;;;5052343;28;20261;-72
2023/04/19 04:27:43;;;;;;;27.77;18.77;;;11.70;99.90;;;;;;5052487;28;20983;-71
2023/04/19 04:30:10;;;;;;;18.13;12.77;;;11.60;99.90;;;;;;5052552;28;20180;-71
2023/04/19 04:32:39;;;;;;;8.87;7.77;;;11.70;99.90;;;;;;5051961;28;20397;-72
2023/04/19 04:35:06;;;;;;;8.80;7.83;;;11.60;99.90;;;;;;5052445;28;20425;-72
2023/04/19 04:37:33;;;;;;;10.87;8.73;;;11.60;99.90;;;;;;5050614;28;20474;-72
2023/04/19 04:40:06;;;;;;;11.27;8.53;;;11.70;99.90;;;;;;5052213;28;20567;-72
2023/04/19 04:42:32;;;;;;;10.27;8.30;;;11.80;99.90;;;;;;5052294;28;20432;-72
2023/04/19 04:45:00;;;;;;;10.43;9.00;;;11.80;99.90;;;;;;5050928;28;20464;-72
2023/04/19 04:47:30;;;;;;;9.70;8.00;;;11.80;99.90;;;;;;5051926;28;20166;-71
2023/04/19 04:49:56;;;;;;;11.10;8.40;;;11.80;99.90;;;;;;5051006;28;20441;-71
2023/04/19 04:52:21;;;;;;;14.77;8.27;;;11.80;99.90;;;;;;5052100;28;20455;-72
2023/04/19 04:54:47;;;;;;;10.33;7.63;;;11.90;99.90;;;;;;5051288;28;20274;-71
2023/04/19 04:57:12;;;;;;;11.30;8.63;;;11.90;99.90;;;;;;5051639;28;20191;-72
2023/04/19 04:59:38;;;;;;;11.70;8.73;;;11.80;99.90;;;;;;5052019;28;20199;-72
2023/04/19 05:02:03;;;;;;;13.43;8.90;;;11.80;99.90;;;;;;5051976;28;20171;-72
2023/04/19 05:04:29;;;;;;;25.50;18.03;;;11.90;99.90;;;;;;5051937;28;20217;-71
2023/04/19 05:06:54;;;;;;;17.47;12.67;;;11.90;99.90;;;;;;5050274;28;20201;-71
2023/04/19 05:09:20;;;;;;;14.57;10.93;;;11.90;99.90;;;;;;5051996;28;20174;-72
2023/04/19 05:11:46;;;;;;;11.07;8.23;;;11.90;99.90;;;;;;5050694;28;20174;-69
2023/04/19 05:14:12;;;;;;;10.23;7.50;;;11.90;99.90;;;;;;5051723;28;20246;-73
2023/04/19 05:16:38;;;;;;;10.00;7.53;;;11.90;99.90;;;;;;5051624;28;20178;-72
2023/04/19 05:19:04;;;;;;;12.70;9.17;;;11.90;99.90;;;;;;5049911;28;20449;-71
2023/04/19 05:21:29;;;;;;;9.77;7.60;;;11.90;99.90;;;;;;5050595;28;20424;-71
2023/04/19 05:23:55;;;;;;;10.27;8.33;;;12.00;99.90;;;;;;5051810;28;20159;-71
2023/04/19 05:26:20;;;;;;;11.60;8.73;;;12.00;99.90;;;;;;5051883;28;20256;-72
2023/04/19 05:28:46;;;;;;;10.93;8.10;;;12.10;99.90;;;;;;5051492;28;20167;-72
2023/04/19 05:31:12;;;;;;;10.00;8.30;;;12.10;99.90;;;;;;5051614;28;20196;-72
2023/04/19 05:33:37;;;;;;;11.70;9.00;;;12.10;99.90;;;;;;5050468;28;20178;-72
2023/04/19 05:36:03;;;;;;;9.07;7.37;;;12.10;99.90;;;;;;5051653;28;20190;-71
2023/04/19 05:38:29;;;;;;;12.93;9.10;;;12.10;99.90;;;;;;5050183;28;20598;-72
2023/04/19 05:40:54;;;;;;;9.00;7.23;;;12.10;99.90;;;;;;5051667;28;20163;-72
2023/04/19 05:43:20;;;;;;;10.40;8.13;;;12.20;99.90;;;;;;5051702;28;20167;-71
2023/04/19 05:45:46;;;;;;;13.67;8.63;;;12.20;99.90;;;;;;5050314;28;20187;-72
2023/04/19 05:48:11;;;;;;;8.27;7.47;;;12.30;99.90;;;;;;5049846;28;20956;-72
2023/04/19 05:50:37;;;;;;;9.73;8.00;;;12.30;99.90;;;;;;5051424;28;20168;-72
2023/04/19 05:53:03;;;;;;;8.97;7.57;;;12.40;99.90;;;;;;5051491;28;20170;-71
2023/04/19 05:55:28;;;;;;;10.07;7.67;;;12.40;99.90;;;;;;5051476;28;20417;-73
2023/04/19 05:57:54;;;;;;;9.87;8.10;;;12.50;99.90;;;;;;5051180;28;20175;-73
2023/04/19 06:00:20;;;;;;;11.53;7.97;;;12.50;99.90;;;;;;5050177;28;20190;-73
2023/04/19 06:02:45;;;;;;;10.57;8.47;;;12.60;99.90;;;;;;5051455;28;20175;-72
2023/04/19 06:05:11;;;;;;;8.47;7.10;;;12.60;99.90;;;;;;5051212;28;20202;-72
2023/04/19 06:07:36;;;;;;;12.37;8.90;;;12.70;99.90;;;;;;5052520;28;20193;-72
2023/04/19 06:10:02;;;;;;;16.50;8.43;;;12.70;99.90;;;;;;5053912;28;20668;-73
2023/04/19 06:12:28;;;;;;;8.57;7.57;;;12.70;99.90;;;;;;5055092;28;20216;-74
2023/04/19 06:14:53;;;;;;;9.43;7.93;;;12.70;99.90;;;;;;5055080;28;20193;-72
2023/04/19 06:17:23;;;;;;;13.80;8.77;;;12.80;99.90;;;;;;5054602;28;20202;-72
2023/04/19 06:19:49;;;;;;;10.00;8.10;;;12.80;99.90;;;;;;5054884;28;20540;-72
2023/04/19 06:22:15;;;;;;;7.60;6.73;;;12.70;99.90;;;;;;5053681;28;20818;-72
2023/04/19 06:24:40;;;;;;;7.90;7.03;;;12.70;99.90;;;;;;5053620;28;20428;-73
2023/04/19 06:27:06;;;;;;;7.50;6.80;;;12.70;99.90;;;;;;5054593;28;20163;-72
2023/04/19 06:29:31;;;;;;;8.87;6.53;;;12.60;99.90;;;;;;5053231;28;20203;-73
2023/04/19 06:31:57;;;;;;;5.80;5.30;;;12.40;99.90;;;;;;5054818;28;20661;-72
2023/04/19 06:34:22;;;;;;;8.80;5.27;;;12.50;99.90;;;;;;5054541;28;20258;-73
2023/04/19 06:36:48;;;;;;;8.43;5.60;;;12.60;99.90;;;;;;5053207;28;20198;-72
2023/04/19 06:39:14;;;;;;;5.13;4.53;;;12.50;99.90;;;;;;5054301;28;20230;-72
2023/04/19 06:41:39;;;;;;;5.90;5.27;;;12.60;99.90;;;;;;5054658;28;20166;-70
2023/04/19 06:44:05;;;;;;;5.63;5.03;;;12.80;99.90;;;;;;5053141;28;20409;-70
2023/04/19 06:46:30;;;;;;;5.67;4.97;;;12.90;99.90;;;;;;5054417;28;20562;-71
2023/04/19 06:48:56;;;;;;;8.67;5.17;;;13.00;99.90;;;;;;5054083;28;20221;-70
2023/04/19 06:51:21;;;;;;;6.47;4.80;;;13.10;99.90;;;;;;5054356;28;20628;-72
2023/04/19 06:53:48;;;;;;;5.27;4.77;;;13.20;99.90;;;;;;5054564;28;20171;-72
2023/04/19 06:56:14;;;;;;;7.90;5.07;;;13.30;99.90;;;;;;5054287;28;20186;-71
2023/04/19 06:58:39;;;;;;;3.83;3.53;;;13.50;99.90;;;;;;5054019;28;20449;-71
2023/04/19 07:01:05;;;;;;;7.10;4.57;;;13.50;99.90;;;;;;5054276;28;20167;-71
2023/04/19 07:03:31;;;;;;;6.53;4.03;;;13.60;99.90;;;;;;5054154;28;20620;-71
2023/04/19 07:05:57;;;;;;;5.80;4.83;;;13.90;99.90;;;;;;5054057;28;20599;-71
2023/04/19 07:08:23;;;;;;;4.63;4.10;;;14.20;99.90;;;;;;5052495;28;20413;-71
2023/04/19 07:10:49;;;;;;;5.60;4.17;;;14.60;99.90;;;;;;5052725;28;20171;-71
2023/04/19 07:13:14;;;;;;;5.47;3.90;;;15.30;99.90;;;;;;5054058;28;20456;-71
2023/04/19 07:15:40;;;;;;;5.00;4.20;;;16.00;99.90;;;;;;5053908;28;20191;-72
2023/04/19 07:18:05;;;;;;;5.60;4.13;;;16.60;99.90;;;;;;5053242;28;20523;-72
2023/04/19 07:20:31;;;;;;;4.30;3.70;;;17.20;99.90;;;;;;5053848;28;20171;-71
2023/04/19 07:23:00;;;;;;;5.60;4.07;;;17.80;99.90;;;;;;5053964;28;20170;-71
2023/04/19 07:25:26;;;;;;;3.20;2.90;;;18.20;99.90;;;;;;5052488;28;20194;-71
2023/04/19 07:27:53;;;;;;;4.10;3.50;;;18.50;99.20;;;;;;5053519;28;20412;-70
2023/04/19 07:30:19;;;;;;;5.07;4.23;;;19.00;96.50;;;;;;5053619;28;20487;-71
2023/04/19 07:32:45;;;;;;;4.30;3.80;;;19.50;94.60;;;;;;5053359;28;20433;-71
2023/04/19 07:35:10;;;;;;;5.10;3.50;;;20.20;92.30;;;;;;5053589;28;20190;-71
2023/04/19 07:37:36;;;;;;;4.40;3.30;;;21.20;91.50;;;;;;5053227;28;20397;-72
2023/04/19 07:40:02;;;;;;;4.43;4.00;;;22.60;81.70;;;;;;5053671;28;20194;-75
2023/04/19 07:42:29;;;;;;;3.50;3.20;;;24.10;71.70;;;;;;5053531;28;20177;-71
2023/04/19 07:44:55;;;;;;;7.07;3.20;;;25.90;60.10;;;;;;5053231;28;20429;-72
2023/04/19 07:47:20;;;;;;;4.40;4.00;;;27.90;54.40;;;;;;5053014;28;20398;-72
2023/04/19 07:49:46;;;;;;;4.37;3.87;;;29.60;46.60;;;;;;5053260;28;20502;-74
2023/04/19 07:52:11;;;;;;;4.27;3.90;;;30.30;40.30;;;;;;5053344;28;20237;-70
2023/04/19 07:54:38;;;;;;;3.80;3.50;;;30.80;38.70;;;;;;5051827;28;20538;-71
2023/04/19 07:57:04;;;;;;;3.80;3.50;;;31.70;38.50;;;;;;5051619;28;20178;-71
2023/04/19 07:59:32;;;;;;;3.50;3.20;;;32.70;37.20;;;;;;5053098;28;20449;-72
2023/04/19 08:01:57;;;;;;;3.23;3.03;;;33.50;35.70;;;;;;5053035;28;20227;-71
2023/04/19 08:04:23;;;;;;;4.00;3.60;;;34.60;34.40;;;;;;5052990;28;20496;-71
2023/04/19 08:06:49;;;;;;;3.90;3.60;;;35.50;32.40;;;;;;5052873;28;20163;-70
2023/04/19 08:09:14;;;;;;;3.80;3.50;;;36.00;30.10;;;;;;5052855;28;20167;-71
2023/04/19 08:11:41;;;;;;;3.90;3.60;;;36.50;29.50;;;;;;5052838;28;20628;-71
2023/04/19 08:14:06;;;;;;;3.97;3.67;;;36.70;28.80;;;;;;5052679;28;20656;-72
2023/04/19 08:16:32;;;;;;;3.93;3.60;;;37.10;28.70;;;;;;5052687;28;20401;-73
2023/04/19 08:18:57;;;;;;;4.50;4.10;;;37.30;27.80;;;;;;5052448;28;20198;-72
2023/04/19 08:21:23;;;;;;;4.23;3.80;;;38.00;27.80;;;;;;5051588;28;20219;-72
2023/04/19 08:23:48;;;;;;;4.67;4.27;;;38.50;26.60;;;;;;5052411;28;20216;-71
2023/04/19 08:26:14;;;;;;;5.00;4.50;;;38.10;24.90;;;;;;5051339;28;20187;-71
2023/04/19 08:28:39;;;;;;;3.80;3.50;;;38.40;26.20;;;;;;5052279;28;20178;-72
2023/04/19 08:31:09;;;;;;;4.37;3.97;;;38.20;25.30;;;;;;5050580;28;20174;-71
2023/04/19 08:33:34;;;;;;;4.80;4.40;;;38.20;25.70;;;;;;5052484;28;20250;-71
2023/04/19 08:36:00;;;;;;;4.67;4.27;;;39.00;25.60;;;;;;5050863;28;21054;-71
2023/04/19 08:38:25;;;;;;;4.57;4.17;;;39.50;25.30;;;;;;5052163;28;20167;-72
2023/04/19 08:40:53;;;;;;;4.80;4.27;;;40.20;25.10;;;;;;5052388;28;20167;-72
2023/04/19 08:43:19;;;;;;;4.70;4.30;;;40.60;24.40;;;;;;5052254;28;20167;-71
2023/04/19 08:45:49;;;;;;;3.93;3.67;;;41.20;24.00;;;;;;5052130;28;20402;-72
2023/04/19 08:48:16;;;;;;;4.60;4.20;;;41.40;23.00;;;;;;5051842;28;20535;-72
2023/04/19 08:50:44;;;;;;;4.40;4.10;;;41.80;22.90;;;;;;5052230;28;20380;-71
2023/04/19 08:53:10;;;;;;;4.67;4.37;;;41.80;22.70;;;;;;5052229;28;20433;-71
2023/04/19 08:55:39;;;;;;;4.50;4.10;;;41.60;22.80;;;;;;5052117;28;20400;-71
2023/04/19 08:58:04;;;;;;;4.67;4.27;;;41.70;22.30;;;;;;5050547;28;20475;-71
2023/04/19 09:00:32;;;;;;;4.73;4.33;;;41.80;22.30;;;;;;5051722;28;20492;-71
2023/04/19 09:02:58;;;;;;;4.60;4.20;;;42.10;22.00;;;;;;5052040;28;20330;-72
2023/04/19 09:05:24;;;;;;;5.30;4.90;;;41.80;21.20;;;;;;5051950;28;20416;-71
2023/04/19 09:07:49;;;;;;;4.80;4.40;;;42.30;22.50;;;;;;5050418;28;20173;-73
2023/04/19 09:10:17;;;;;;;4.00;3.70;;;43.20;21.80;;;;;;5051908;28;20285;-71
2023/04/19 09:13:03;;;;;;;4.67;4.33;;;43.50;21.30;;;;;;5051754;28;20178;-72
2023/04/19 09:15:40;;;;;;;4.53;4.23;;;43.40;21.20;;;;;;5052011;28;20442;-71
2023/04/19 09:18:09;;;;;;;3.63;3.33;;;43.70;21.20;;;;;;5051595;28;20413;-72
2023/04/19 09:20:40;;;;;;;4.80;4.40;;;43.10;20.10;;;;;;5051908;28;20759;-71
2023/04/19 09:23:08;;;;;;;6.10;3.67;;;42.60;20.30;;;;;;5050639;28;20484;-71
2023/04/19 09:25:34;;;;;;;4.30;3.90;;;42.60;21.00;;;;;;5052018;28;20858;-71
2023/04/19 09:28:13;;;;;;;5.53;3.37;;;42.70;20.80;;;;;;5051466;28;20410;-73
2023/04/19 09:30:40;;;;;;;4.27;3.70;;;42.60;20.80;;;;;;5051747;28;20396;-71
2023/04/19 09:33:07;;;;;;;4.20;3.90;;;42.50;20.40;;;;;;5050535;28;20400;-71
2023/04/19 09:35:40;;;;;;;3.70;3.40;;;42.40;20.30;;;;;;5050341;28;20507;-72
2023/04/19 09:38:05;;;;;;;4.03;3.73;;;42.50;20.20;;;;;;5051374;28;20380;-71
2023/04/19 09:40:31;;;;;;;4.00;3.70;;;42.30;19.90;;;;;;5051612;28;20471;-71
2023/04/19 09:42:57;;;;;;;4.00;3.60;;;42.30;20.00;;;;;;5054022;28;20167;-71
2023/04/19 09:45:23;;;;;;;4.50;4.10;;;42.20;20.00;;;;;;5054363;28;20281;-71
2023/04/19 09:48:18;;;;;;;5.17;3.90;;;41.60;20.00;;;;;;5055434;28;20202;-71
2023/04/19 09:51:00;;;;;;;3.87;3.60;;;41.50;20.50;;;;;;5055146;28;20660;-71
2023/04/19 09:53:27;;;;;;;4.10;3.70;;;41.60;20.20;;;;;;5055650;28;20425;-72
2023/04/19 09:55:53;;;;;;;6.03;3.97;;;41.40;19.00;;;;;;5054165;28;20795;-71
2023/04/19 09:58:20;;;;;;;3.80;3.50;;;41.50;19.70;;;;;;5054649;28;20376;-71
2023/04/19 10:00:46;;;;;;;4.93;4.13;;;41.40;19.90;;;;;;5054033;28;20167;-71
2023/04/19 10:03:14;;;;;;;3.77;3.47;;;41.00;19.10;;;;;;5054156;28;20412;-71
2023/04/19 10:05:41;;;;;;;3.40;3.10;;;40.80;19.70;;;;;;5055189;28;20479;-71
2023/04/19 10:08:08;;;;;;;3.90;3.50;;;40.60;20.30;;;;;;5054920;28;20397;-71
2023/04/19 10:10:34;;;;;;;3.60;3.30;;;41.80;21.30;;;;;;5054841;28;20853;-72
2023/04/19 10:13:03;;;;;;;4.00;3.70;;;42.20;19.60;;;;;;5054430;28;20853;-71
2023/04/19 10:15:30;;;;;;;4.43;3.43;;;41.90;19.20;;;;;;5053324;28;20479;-71
2023/04/19 10:17:56;;;;;;;3.57;3.37;;;41.20;19.20;;;;;;5054316;28;20398;-72
2023/04/19 10:20:32;;;;;;;5.10;3.50;;;41.30;19.40;;;;;;5054745;28;20376;-72
2023/04/19 10:22:59;;;;;;;4.10;3.80;;;40.90;18.90;;;;;;5054498;28;20220;-71
2023/04/19 10:25:29;;;;;;;3.70;3.30;;;41.00;19.60;;;;;;5054320;28;20425;-71
2023/04/19 10:27:54;;;;;;;3.70;3.40;;;41.50;19.30;;;;;;5054470;28;20484;-71
2023/04/19 10:30:26;;;;;;;4.90;4.00;;;41.80;19.10;;;;;;5054706;28;20556;-72
2023/04/19 10:33:01;;;;;;;3.63;3.33;;;42.50;19.10;;;;;;5054163;28;20217;-71
2023/04/19 10:35:34;;;;;;;3.43;3.13;;;42.70;18.50;;;;;;5052956;28;20399;-71
2023/04/19 10:38:11;;;;;;;3.60;3.40;;;42.80;18.80;;;;;;5054111;28;20372;-73
2023/04/19 10:40:59;;;;;;;3.60;3.40;;;43.50;19.00;;;;;;5051357;28;20409;-71
2023/04/19 10:43:30;;;;;;;3.20;2.70;;;44.60;19.20;;;;;;5054690;28;20768;-71
2023/04/19 10:46:07;;;;;;;3.40;3.20;;;45.40;19.00;;;;;;5053488;28;20428;-72
2023/04/19 10:48:36;;;;;;;4.43;3.20;;;46.00;18.50;;;;;;5054224;28;20415;-72
2023/04/19 10:51:09;;;;;;;3.37;3.17;;;46.60;18.40;;;;;;5054397;28;20380;-73
2023/04/19 10:54:00;;;;;;;3.10;2.90;;;46.50;18.20;;;;;;5052517;28;20384;-72
2023/04/19 10:56:32;;;;;;;3.27;3.07;;;46.80;18.40;;;;;;5053825;28;20424;-71
2023/04/19 10:59:00;;;;;;;3.27;3.07;;;47.50;18.30;;;;;;5054010;28;20379;-72
2023/04/19 11:01:43;;;;;;;5.07;3.77;;;47.20;17.70;;;;;;5054297;28;20414;-72
2023/04/19 11:04:16;;;;;;;3.10;2.90;;;47.20;17.10;;;;;;5054211;28;20403;-73
2023/04/19 11:06:53;;;;;;;4.30;3.60;;;47.60;17.90;;;;;;5054098;28;20718;-72
2023/04/19 11:09:37;;;;;;;3.40;3.20;;;47.70;17.80;;;;;;5053988;28;20423;-73
2023/04/19 11:12:07;;;;;;;3.33;3.13;;;47.70;17.00;;;;;;5054065;28;20862;-73
2023/04/19 11:14:35;;;;;;;3.83;3.43;;;47.40;17.00;;;;;;5054021;28;20889;-73
2023/04/19 11:17:15;;;;;;;3.97;3.57;;;46.80;16.60;;;;;;5053589;28;20455;-72
2023/04/19 11:19:54;;;;;;;4.67;2.90;;;46.50;17.10;;;;;;5054041;28;20869;-73
2023/04/19 11:22:34;;;;;;;3.30;3.10;;;45.90;16.80;;;;;;5053869;28;20440;-72
2023/04/19 11:25:18;;;;;;;3.53;3.27;;;45.50;16.80;;;;;;5052465;28;20429;-72
2023/04/19 11:27:48;;;;;;;4.50;3.43;;;45.40;17.50;;;;;;5053641;28;20463;-72
2023/04/19 11:30:15;;;;;;;3.13;2.87;;;45.70;16.90;;;;;;5052493;28;20423;-72
2023/04/19 11:32:52;;;;;;;5.00;3.10;;;46.30;17.20;;;;;;5052382;28;21131;-72
2023/04/19 11:35:25;;;;;;;3.70;3.40;;;47.00;17.10;;;;;;5053689;28;20395;-72
2023/04/19 11:37:52;;;;;;;4.50;4.00;;;47.10;16.50;;;;;;5053484;28;20412;-72
2023/04/19 11:40:19;;;;;;;3.40;3.20;;;47.10;16.10;;;;;;5053524;28;20376;-72
2023/04/19 11:42:45;;;;;;;3.33;3.03;;;47.10;15.80;;;;;;5052545;28;20496;-72
2023/04/19 11:45:22;;;;;;;5.90;2.63;;;47.40;16.30;;;;;;5053016;28;20817;-72
2023/04/19 11:47:49;;;;;;;3.57;2.87;;;47.40;16.30;;;;;;5053078;28;20734;-73
2023/04/19 11:50:35;;;;;;;2.63;2.43;;;46.90;15.50;;;;;;5052038;28;20431;-72
2023/04/19 11:53:13;;;;;;;4.60;3.40;;;46.80;15.10;;;;;;5052087;28;20381;-72
2023/04/19 11:55:40;;;;;;;3.60;3.30;;;47.20;15.80;;;;;;5053246;28;20406;-72
2023/04/19 11:58:09;;;;;;;4.10;3.37;;;46.80;15.30;;;;;;5052942;28;20379;-72
2023/04/19 12:00:35;;;;;;;2.80;2.60;;;46.60;15.50;;;;;;5053319;28;20394;-72
2023/04/19 12:03:01;;;;;;;2.53;2.23;;;46.90;15.60;;;;;;5053126;28;20459;-72
2023/04/19 12:05:27;;;;;;;3.37;3.07;;;47.10;15.50;;;;;;5050732;28;20190;-72
2023/04/19 12:08:07;;;;;;;3.33;3.03;;;47.10;15.30;;;;;;5051517;28;20938;-72
2023/04/19 12:10:34;;;;;;;2.97;2.77;;;47.00;15.20;;;;;;5053041;28;20195;-72
2023/04/19 12:13:00;;;;;;;3.23;2.90;;;46.50;15.30;;;;;;5052788;28;20392;-72
2023/04/19 12:15:42;;;;;;;3.20;3.00;;;46.50;15.60;;;;;;5051581;28;20426;-71
2023/04/19 12:18:07;;;;;;;4.47;3.27;;;47.00;15.70;;;;;;5052457;28;20396;-72
2023/04/19 12:20:36;;;;;;;3.20;3.00;;;46.60;15.50;;;;;;5052734;28;20501;-72
2023/04/19 12:23:02;;;;;;;2.63;2.43;;;46.10;15.20;;;;;;5051213;28;20167;-72
2023/04/19 12:25:32;;;;;;;3.33;2.90;;;45.60;15.70;;;;;;5052899;28;20905;-72
2023/04/19 12:27:58;;;;;;;3.10;2.90;;;44.70;15.40;;;;;;5052386;28;20407;-72
2023/04/19 12:30:25;;;;;;;3.43;2.60;;;43.40;15.30;;;;;;5052511;28;20435;-71
2023/04/19 12:32:54;;;;;;;5.07;3.00;;;43.40;16.20;;;;;;5052529;28;20753;-72
2023/04/19 12:35:23;;;;;;;3.20;3.00;;;42.90;16.30;;;;;;5051165;28;20415;-72
2023/04/19 12:37:48;;;;;;;3.37;2.80;;;43.10;16.20;;;;;;5050920;28;20407;-72
2023/04/19 12:40:14;;;;;;;3.70;2.73;;;43.80;16.50;;;;;;5051213;28;20417;-71